Weather at Liernu Ultralightport

Public forecast

Using degrees Celsius for public forecast. Weather courtesy of forecast.io.

Closest aviation weather report (METAR) to Liernu Ultralightport

Closest report is Beauvechain Air Base, 10.8 nm (20.0 km) N.

2024/05/25 15:55 (retrieved 43 minutes ago)

EBBE 251555Z AUTO 27005KT 9999 FEW045/// 18/10 Q1016 BLU

Closest aviation forecast (TAF) to Liernu Ultralightport

Forecast is more than 12 hours old.

Closest forecast is Beauvechain Air Base, 10.8 nm (20.0 km) N.

2024/05/23 19:12 (retrieved 2 days ago)

TAF TAF EBBE 231541Z 2319/2407 22004KT 9999 FEW040